Time;durP1;ratioP1;P1;durP2;ratioP2;P2;SDS_P1;SDS_P2;PMS_P1;PMS_P2;Temp;Humidity;BMP_temperature;BMP_pressure;BME280_temperature;BME280_humidity;BME280_pressure;Samples;Min_cycle;Max_cycle;Signal;HPM_P1;HPM_P2
2020/12/25 00:01:16;;;;;;;18.30;3.10;;;;;;;;;;4973686;28;20030;-81
2020/12/25 00:03:41;;;;;;;14.60;3.37;;;;;;;;;;4975838;28;20023;-81
2020/12/25 00:06:07;;;;;;;20.83;3.87;;;;;;;;;;4975202;28;20070;-81
2020/12/25 00:08:32;;;;;;;21.87;3.03;;;;;;;;;;4974796;28;20019;-80
2020/12/25 00:10:57;;;;;;;9.47;2.73;;;;;;;;;;4976023;28;20018;-81
2020/12/25 00:13:22;;;;;;;13.23;3.30;;;;;;;;;;4975786;28;20034;-80
2020/12/25 00:15:47;;;;;;;17.03;3.07;;;;;;;;;;4974264;28;20073;-81
2020/12/25 00:18:13;;;;;;;12.73;2.67;;;;;;;;;;4975542;28;20050;-81
2020/12/25 00:20:38;;;;;;;10.67;3.07;;;;;;;;;;4974043;28;20018;-80
2020/12/25 00:23:03;;;;;;;13.13;2.57;;;;;;;;;;4975526;28;20421;-80
2020/12/25 00:25:28;;;;;;;24.57;3.63;;;;;;;;;;4975058;28;20038;-81
2020/12/25 00:27:53;;;;;;;15.43;3.27;;;;;;;;;;4973694;28;20030;-80
2020/12/25 00:30:19;;;;;;;18.37;3.00;;;;;;;;;;4967363;28;20027;-81
2020/12/25 00:32:44;;;;;;;13.63;2.90;;;;;;;;;;4964070;28;20030;-81
2020/12/25 00:35:09;;;;;;;8.20;2.47;;;;;;;;;;4975213;28;20365;-80
2020/12/25 00:37:34;;;;;;;9.73;2.73;;;;;;;;;;4973771;28;20065;-81
2020/12/25 00:39:59;;;;;;;12.77;2.97;;;;;;;;;;4974150;28;20030;-81
2020/12/25 00:42:25;;;;;;;10.77;3.03;;;;;;;;;;4973082;28;20038;-81
2020/12/25 00:44:50;;;;;;;16.20;3.37;;;;;;;;;;4973712;28;20019;-81
2020/12/25 00:47:15;;;;;;;16.37;3.00;;;;;;;;;;4974534;28;20027;-81
2020/12/25 00:49:40;;;;;;;13.77;3.03;;;;;;;;;;4974697;28;20027;-81
2020/12/25 00:52:05;;;;;;;16.30;3.10;;;;;;;;;;4974986;28;20457;-81
2020/12/25 00:54:30;;;;;;;12.73;3.30;;;;;;;;;;4973888;28;20068;-81
2020/12/25 00:56:56;;;;;;;11.20;2.87;;;;;;;;;;4971595;28;20142;-81
2020/12/25 00:59:21;;;;;;;8.80;3.13;;;;;;;;;;4973364;28;20034;-81
2020/12/25 01:01:49;;;;;;;9.37;3.00;;;;;;;;;;4973228;28;20466;-81
2020/12/25 01:04:14;;;;;;;8.30;2.80;;;;;;;;;;4971974;28;20115;-81
2020/12/25 01:06:41;;;;;;;15.60;3.50;;;;;;;;;;4973182;28;20437;-80
2020/12/25 01:09:06;;;;;;;11.30;3.00;;;;;;;;;;4973182;28;20034;-81
2020/12/25 01:11:31;;;;;;;15.57;3.10;;;;;;;;;;4970468;28;20438;-81
2020/12/25 01:13:56;;;;;;;7.70;2.50;;;;;;;;;;4973131;28;20034;-81
2020/12/25 01:16:21;;;;;;;12.90;2.50;;;;;;;;;;4971205;28;20019;-80
2020/12/25 01:18:47;;;;;;;8.60;2.37;;;;;;;;;;4972521;28;20058;-80
2020/12/25 01:21:13;;;;;;;16.20;2.70;;;;;;;;;;4971432;28;20026;-80
2020/12/25 01:23:38;;;;;;;15.67;3.40;;;;;;;;;;4971472;28;20089;-80
2020/12/25 01:26:06;;;;;;;13.07;2.90;;;;;;;;;;4971798;28;20355;-81
2020/12/25 01:28:32;;;;;;;11.40;2.03;;;;;;;;;;4974281;28;20018;-81
2020/12/25 01:30:57;;;;;;;12.73;2.23;;;;;;;;;;4974440;28;20019;-80
2020/12/25 01:33:22;;;;;;;9.80;1.97;;;;;;;;;;4974072;28;20464;-81
2020/12/25 01:35:48;;;;;;;14.67;2.20;;;;;;;;;;4974291;28;20039;-81
2020/12/25 01:38:13;;;;;;;9.60;2.20;;;;;;;;;;4974165;28;20149;-81
2020/12/25 01:40:38;;;;;;;7.90;2.00;;;;;;;;;;4974031;28;20066;-81
2020/12/25 01:43:03;;;;;;;8.17;1.80;;;;;;;;;;4973037;28;20026;-81
2020/12/25 01:45:29;;;;;;;10.93;1.70;;;;;;;;;;4974397;28;20102;-80
2020/12/25 01:47:54;;;;;;;12.13;1.77;;;;;;;;;;4974103;28;20015;-80
2020/12/25 01:50:21;;;;;;;7.17;1.33;;;;;;;;;;4973440;28;20033;-80
2020/12/25 01:52:47;;;;;;;7.17;1.40;;;;;;;;;;4973971;28;20047;-81
2020/12/25 01:55:12;;;;;;;6.43;1.20;;;;;;;;;;4972551;28;20062;-81
2020/12/25 01:57:38;;;;;;;5.43;1.53;;;;;;;;;;4973915;28;20035;-81
2020/12/25 02:00:04;;;;;;;4.17;1.37;;;;;;;;;;4973466;28;20689;-81
2020/12/25 02:02:30;;;;;;;4.33;1.13;;;;;;;;;;4972471;28;20039;-81
2020/12/25 02:04:56;;;;;;;4.27;1.20;;;;;;;;;;4973789;28;20035;-81
2020/12/25 02:07:21;;;;;;;5.73;1.73;;;;;;;;;;4973782;28;20030;-80
2020/12/25 02:09:46;;;;;;;6.97;1.30;;;;;;;;;;4973690;28;20410;-81
2020/12/25 02:12:12;;;;;;;3.73;1.00;;;;;;;;;;4973830;28;20114;-80
2020/12/25 02:14:37;;;;;;;7.07;1.23;;;;;;;;;;4971930;28;20109;-81
2020/12/25 02:17:02;;;;;;;6.40;1.37;;;;;;;;;;4973437;28;20110;-80
2020/12/25 02:19:27;;;;;;;8.00;1.80;;;;;;;;;;4972115;28;20023;-81
2020/12/25 02:21:53;;;;;;;7.23;1.50;;;;;;;;;;4972082;28;20474;-81
2020/12/25 02:24:18;;;;;;;6.43;1.30;;;;;;;;;;4972657;28;20026;-80
2020/12/25 02:26:43;;;;;;;5.77;1.33;;;;;;;;;;4973969;28;20015;-81
2020/12/25 02:29:08;;;;;;;4.60;1.20;;;;;;;;;;4974231;28;20014;-81
2020/12/25 02:31:33;;;;;;;7.17;1.20;;;;;;;;;;4974132;28;20023;-81
2020/12/25 02:33:59;;;;;;;5.70;1.23;;;;;;;;;;4973635;28;20033;-81
2020/12/25 02:36:24;;;;;;;9.10;1.47;;;;;;;;;;4974009;28;20022;-80
2020/12/25 02:38:49;;;;;;;6.07;1.50;;;;;;;;;;4974075;28;20058;-80
2020/12/25 02:41:14;;;;;;;5.67;0.73;;;;;;;;;;4973376;28;20483;-80
2020/12/25 02:43:39;;;;;;;6.27;1.10;;;;;;;;;;4972970;28;20030;-81
2020/12/25 02:46:05;;;;;;;4.77;0.93;;;;;;;;;;4973212;28;20426;-80
2020/12/25 02:48:30;;;;;;;7.70;1.30;;;;;;;;;;4974138;28;20019;-81
2020/12/25 02:50:55;;;;;;;12.27;1.40;;;;;;;;;;4974027;28;20023;-80
2020/12/25 02:53:20;;;;;;;4.53;0.97;;;;;;;;;;4972649;28;20455;-80
2020/12/25 02:55:45;;;;;;;9.40;1.20;;;;;;;;;;4974029;28;20537;-81
2020/12/25 02:58:11;;;;;;;4.83;1.13;;;;;;;;;;4972157;28;20035;-80
2020/12/25 03:00:36;;;;;;;5.70;0.97;;;;;;;;;;4973597;28;20018;-80
2020/12/25 03:03:01;;;;;;;6.13;1.20;;;;;;;;;;4971983;28;20015;-80
2020/12/25 03:05:26;;;;;;;4.63;0.83;;;;;;;;;;4971912;28;20027;-80
2020/12/25 03:07:51;;;;;;;10.33;1.37;;;;;;;;;;4972983;28;20422;-80
2020/12/25 03:10:16;;;;;;;4.80;0.90;;;;;;;;;;4971171;28;20014;-80
2020/12/25 03:12:42;;;;;;;6.90;1.00;;;;;;;;;;4969934;28;20023;-80
2020/12/25 03:15:07;;;;;;;5.87;1.00;;;;;;;;;;4971457;28;20011;-75
2020/12/25 03:17:32;;;;;;;12.47;0.90;;;;;;;;;;4971010;28;20037;-76
2020/12/25 03:19:57;;;;;;;4.33;0.83;;;;;;;;;;4971317;28;20026;-75
2020/12/25 03:22:22;;;;;;;11.37;1.10;;;;;;;;;;4971221;28;20015;-76
2020/12/25 03:24:48;;;;;;;2.27;0.90;;;;;;;;;;4969936;28;20078;-75
2020/12/25 03:27:13;;;;;;;6.13;0.70;;;;;;;;;;4969594;28;20046;-75
2020/12/25 03:29:38;;;;;;;2.13;0.80;;;;;;;;;;4970196;28;20015;-76
2020/12/25 03:32:03;;;;;;;4.47;0.70;;;;;;;;;;4970778;28;20454;-76
2020/12/25 03:34:28;;;;;;;3.20;1.03;;;;;;;;;;4971684;28;20065;-76
2020/12/25 03:36:54;;;;;;;7.73;0.80;;;;;;;;;;4976248;28;20110;-76
2020/12/25 03:39:20;;;;;;;2.57;0.80;;;;;;;;;;4976299;28;20023;-76
2020/12/25 03:41:45;;;;;;;7.07;0.90;;;;;;;;;;4973364;28;20110;-75
2020/12/25 03:44:10;;;;;;;2.67;0.80;;;;;;;;;;4976234;28;20010;-76
2020/12/25 03:46:36;;;;;;;4.60;0.80;;;;;;;;;;4974724;28;20023;-76
2020/12/25 03:49:03;;;;;;;2.90;0.80;;;;;;;;;;4975591;28;20034;-76
2020/12/25 03:51:28;;;;;;;6.53;0.97;;;;;;;;;;4974818;28;20077;-76
2020/12/25 03:53:53;;;;;;;3.47;0.80;;;;;;;;;;4974798;28;20063;-75
2020/12/25 03:56:18;;;;;;;3.63;0.73;;;;;;;;;;4975917;28;20425;-76
2020/12/25 03:58:43;;;;;;;6.03;1.33;;;;;;;;;;4974354;28;20039;-76
2020/12/25 04:01:09;;;;;;;7.60;0.90;;;;;;;;;;4975901;28;20022;-76
2020/12/25 04:03:34;;;;;;;3.53;0.80;;;;;;;;;;4975725;28;20026;-76
2020/12/25 04:05:59;;;;;;;4.63;0.80;;;;;;;;;;4974507;28;20378;-76
2020/12/25 04:08:24;;;;;;;4.23;0.80;;;;;;;;;;4976153;28;20019;-76
2020/12/25 04:10:49;;;;;;;3.77;0.90;;;;;;;;;;4974502;28;20118;-77
2020/12/25 04:13:15;;;;;;;3.67;0.90;;;;;;;;;;4976217;28;20034;-77
2020/12/25 04:15:40;;;;;;;7.73;0.90;;;;;;;;;;4973888;28;20382;-77
2020/12/25 04:18:05;;;;;;;3.33;0.77;;;;;;;;;;4975622;28;20058;-77
2020/12/25 04:20:30;;;;;;;5.43;0.80;;;;;;;;;;4974313;28;20470;-77
2020/12/25 04:22:55;;;;;;;3.73;0.90;;;;;;;;;;4975735;28;20033;-77
2020/12/25 04:25:21;;;;;;;5.07;1.20;;;;;;;;;;4974730;28;20717;-77
2020/12/25 04:27:46;;;;;;;7.83;1.20;;;;;;;;;;4974240;28;20076;-77
2020/12/25 04:30:11;;;;;;;3.83;1.03;;;;;;;;;;4975307;28;20023;-77
2020/12/25 04:32:36;;;;;;;7.60;1.13;;;;;;;;;;4974667;28;20030;-77
2020/12/25 04:35:01;;;;;;;6.87;1.20;;;;;;;;;;4975228;28;20463;-77
2020/12/25 04:37:27;;;;;;;6.63;1.80;;;;;;;;;;4973819;28;20042;-77
2020/12/25 04:39:52;;;;;;;9.70;1.33;;;;;;;;;;4975194;28;20162;-77
2020/12/25 04:42:17;;;;;;;8.83;1.27;;;;;;;;;;4973960;28;20470;-77
2020/12/25 04:44:43;;;;;;;7.27;1.17;;;;;;;;;;4975140;28;20022;-77
2020/12/25 04:47:11;;;;;;;5.40;1.00;;;;;;;;;;4972155;28;20037;-77
2020/12/25 04:49:37;;;;;;;6.17;1.10;;;;;;;;;;4973474;28;20026;-81
2020/12/25 04:52:03;;;;;;;3.37;0.90;;;;;;;;;;4974330;28;20347;-80
2020/12/25 04:54:28;;;;;;;4.33;1.20;;;;;;;;;;4975685;28;20018;-80
2020/12/25 04:56:54;;;;;;;10.67;1.00;;;;;;;;;;4975370;28;20529;-81
2020/12/25 04:59:19;;;;;;;2.83;0.90;;;;;;;;;;4974175;28;20066;-81
2020/12/25 05:01:44;;;;;;;6.00;0.70;;;;;;;;;;4975131;28;20109;-80
2020/12/25 05:04:19;;;;;;;3.37;0.70;;;;;;;;;;4974239;28;20345;-80
2020/12/25 05:06:46;;;;;;;7.63;0.90;;;;;;;;;;4975246;28;20121;-80
2020/12/25 05:09:14;;;;;;;3.87;0.70;;;;;;;;;;4975371;28;20033;-81
2020/12/25 05:11:39;;;;;;;9.37;0.70;;;;;;;;;;4974009;28;20023;-81
2020/12/25 05:14:04;;;;;;;7.93;1.20;;;;;;;;;;4975212;28;20433;-81
2020/12/25 05:16:30;;;;;;;5.23;0.80;;;;;;;;;;4973992;28;20030;-80
2020/12/25 05:18:55;;;;;;;6.10;0.87;;;;;;;;;;4973553;28;20421;-80
2020/12/25 05:21:21;;;;;;;3.93;0.80;;;;;;;;;;4973508;28;20077;-80
2020/12/25 05:23:47;;;;;;;7.03;0.70;;;;;;;;;;4973445;28;20377;-81
2020/12/25 05:26:14;;;;;;;2.37;0.90;;;;;;;;;;4974912;28;20199;-81
2020/12/25 05:28:40;;;;;;;3.60;0.93;;;;;;;;;;4972789;28;20477;-77
2020/12/25 05:31:06;;;;;;;5.63;0.80;;;;;;;;;;4973257;28;20382;-77
2020/12/25 05:33:31;;;;;;;3.63;0.90;;;;;;;;;;4973033;28;20019;-76
2020/12/25 05:35:57;;;;;;;2.30;0.80;;;;;;;;;;4972725;28;20378;-77
2020/12/25 05:38:22;;;;;;;4.47;1.00;;;;;;;;;;4973085;28;20046;-77
2020/12/25 05:40:48;;;;;;;5.80;0.90;;;;;;;;;;4972385;28;20043;-77
2020/12/25 05:43:14;;;;;;;10.47;2.20;;;;;;;;;;4971668;28;20045;-77
2020/12/25 05:45:40;;;;;;;7.13;1.10;;;;;;;;;;4973164;28;20031;-77
2020/12/25 05:48:06;;;;;;;6.70;1.07;;;;;;;;;;4974280;28;20094;-77
2020/12/25 05:50:32;;;;;;;7.40;0.83;;;;;;;;;;4972580;28;20437;-77
2020/12/25 05:52:57;;;;;;;3.93;0.80;;;;;;;;;;4973812;28;20130;-77
2020/12/25 05:55:23;;;;;;;4.27;0.90;;;;;;;;;;4973759;28;20022;-77
2020/12/25 05:57:52;;;;;;;8.67;1.17;;;;;;;;;;4972164;28;20042;-77
2020/12/25 06:00:18;;;;;;;4.87;1.03;;;;;;;;;;4973904;28;20038;-77
2020/12/25 06:02:50;;;;;;;2.00;0.90;;;;;;;;;;4973546;28;20034;-77
2020/12/25 06:05:16;;;;;;;7.70;0.90;;;;;;;;;;4972035;28;20029;-77
2020/12/25 06:07:47;;;;;;;8.30;1.20;;;;;;;;;;4973772;28;20506;-77
2020/12/25 06:10:14;;;;;;;5.33;0.97;;;;;;;;;;4972036;28;20023;-77
2020/12/25 06:12:43;;;;;;;5.67;1.60;;;;;;;;;;4973675;28;20058;-77
2020/12/25 06:15:09;;;;;;;9.47;1.40;;;;;;;;;;4973233;28;20029;-77
2020/12/25 06:17:37;;;;;;;7.33;1.40;;;;;;;;;;4973751;28;20032;-77
2020/12/25 06:20:03;;;;;;;6.73;2.07;;;;;;;;;;4973060;28;20121;-77
2020/12/25 06:22:32;;;;;;;3.77;1.10;;;;;;;;;;4971354;28;20433;-76
2020/12/25 06:24:58;;;;;;;2.60;0.97;;;;;;;;;;4973335;28;20153;-77
2020/12/25 06:27:27;;;;;;;2.20;0.90;;;;;;;;;;4972306;28;20026;-77
2020/12/25 06:29:56;;;;;;;4.90;0.93;;;;;;;;;;4973752;28;20128;-77
2020/12/25 06:32:24;;;;;;;3.50;0.87;;;;;;;;;;4972957;28;20031;-77
2020/12/25 06:34:50;;;;;;;2.33;0.83;;;;;;;;;;4971499;28;20030;-77
2020/12/25 06:37:15;;;;;;;3.63;1.20;;;;;;;;;;4971648;28;20442;-77
2020/12/25 06:39:51;;;;;;;4.63;1.47;;;;;;;;;;4971183;28;20177;-77
2020/12/25 06:42:23;;;;;;;2.93;1.20;;;;;;;;;;4969757;28;20383;-77
2020/12/25 06:44:48;;;;;;;3.47;0.98;;;;;;;;;;4971182;28;20065;-77
2020/12/25 06:47:26;;;;;;;5.23;1.30;;;;;;;;;;4970855;28;20417;-77
2020/12/25 06:49:51;;;;;;;5.53;1.20;;;;;;;;;;4970881;28;20093;-77
2020/12/25 06:52:24;;;;;;;6.43;1.40;;;;;;;;;;4971353;28;20109;-77
2020/12/25 06:54:49;;;;;;;5.07;0.97;;;;;;;;;;4969283;28;20536;-77
2020/12/25 06:57:14;;;;;;;5.17;1.27;;;;;;;;;;4972873;28;20129;-76
2020/12/25 06:59:39;;;;;;;6.53;1.40;;;;;;;;;;4972660;28;20085;-77
2020/12/25 07:02:05;;;;;;;6.30;1.50;;;;;;;;;;4972288;28;20047;-76
2020/12/25 07:04:31;;;;;;;6.53;1.20;;;;;;;;;;4971517;28;20200;-77
2020/12/25 07:07:01;;;;;;;4.67;1.20;;;;;;;;;;4970256;28;20022;-77
2020/12/25 07:09:35;;;;;;;6.97;1.33;;;;;;;;;;4958103;28;20027;-77
2020/12/25 07:12:03;;;;;;;3.63;1.10;;;;;;;;;;4971456;28;20023;-77
2020/12/25 07:14:28;;;;;;;4.27;1.10;;;;;;;;;;4972881;28;20065;-77
2020/12/25 07:16:53;;;;;;;4.17;1.40;;;;;;;;;;4966580;28;20051;-77
2020/12/25 07:19:18;;;;;;;6.60;1.33;;;;;;;;;;4972006;28;20027;-77
2020/12/25 07:21:44;;;;;;;5.00;1.30;;;;;;;;;;4970980;28;20027;-77
2020/12/25 07:24:09;;;;;;;4.73;1.20;;;;;;;;;;4970794;28;20113;-77
2020/12/25 07:26:34;;;;;;;6.87;1.43;;;;;;;;;;4972693;28;20025;-77
2020/12/25 07:29:02;;;;;;;8.70;1.20;;;;;;;;;;4971154;28;20031;-77
2020/12/25 07:31:27;;;;;;;7.67;1.67;;;;;;;;;;4971333;28;20106;-77
2020/12/25 07:33:57;;;;;;;6.03;1.80;;;;;;;;;;4968230;28;20730;-77
2020/12/25 07:36:23;;;;;;;8.87;1.60;;;;;;;;;;4970273;28;20118;-77
2020/12/25 07:38:58;;;;;;;6.10;1.70;;;;;;;;;;4972551;28;20090;-77
2020/12/25 07:41:23;;;;;;;10.40;1.40;;;;;;;;;;4965737;28;20033;-77
2020/12/25 07:43:48;;;;;;;7.97;2.00;;;;;;;;;;4963113;28;20023;-78
2020/12/25 07:46:13;;;;;;;8.17;2.30;;;;;;;;;;4970340;28;20042;-77
2020/12/25 07:48:40;;;;;;;6.20;1.57;;;;;;;;;;4972215;28;20023;-77
2020/12/25 07:51:06;;;;;;;8.30;2.00;;;;;;;;;;4972225;28;20051;-77
2020/12/25 07:53:31;;;;;;;5.07;1.60;;;;;;;;;;4971525;28;20443;-78
2020/12/25 07:55:58;;;;;;;7.60;1.90;;;;;;;;;;4972237;28;20086;-78
2020/12/25 07:58:23;;;;;;;6.73;1.70;;;;;;;;;;4968396;28;20427;-77
2020/12/25 08:00:49;;;;;;;4.87;1.67;;;;;;;;;;4970496;28;20045;-78
2020/12/25 08:03:14;;;;;;;5.07;1.57;;;;;;;;;;4973815;28;20034;-78
2020/12/25 08:05:39;;;;;;;5.20;1.60;;;;;;;;;;4970621;28;20057;-78
2020/12/25 08:08:05;;;;;;;6.63;1.97;;;;;;;;;;4968858;28;20023;-78
2020/12/25 08:10:33;;;;;;;10.63;2.00;;;;;;;;;;4972106;28;20015;-78
2020/12/25 08:12:58;;;;;;;7.93;3.00;;;;;;;;;;4966602;28;20030;-77
2020/12/25 08:15:24;;;;;;;6.73;1.93;;;;;;;;;;4954435;28;20142;-78
2020/12/25 08:17:54;;;;;;;6.97;1.90;;;;;;;;;;4959051;28;20030;-77
2020/12/25 08:20:23;;;;;;;4.63;1.70;;;;;;;;;;4960714;28;20755;-77
2020/12/25 08:22:48;;;;;;;5.57;1.60;;;;;;;;;;4966909;28;20035;-78
2020/12/25 08:25:14;;;;;;;29.57;10.07;;;;;;;;;;4958310;28;20054;-78
2020/12/25 08:27:44;;;;;;;16.17;4.90;;;;;;;;;;4972375;28;20038;-78
2020/12/25 08:30:09;;;;;;;17.60;7.40;;;;;;;;;;4966653;28;20378;-78
2020/12/25 08:32:34;;;;;;;30.17;10.80;;;;;;;;;;4962076;28;20023;-80
2020/12/25 08:35:06;;;;;;;44.07;19.63;;;;;;;;;;4971055;28;20146;-80
2020/12/25 08:37:31;;;;;;;244.48;103.45;;;;;;;;;;4974961;28;20034;-80
2020/12/25 08:40:10;;;;;;;9.43;3.80;;;;;;;;;;4962732;28;20039;-82
2020/12/25 08:42:35;;;;;;;8.57;2.10;;;;;;;;;;4964807;28;20033;-81
2020/12/25 08:45:01;;;;;;;8.30;2.77;;;;;;;;;;4974168;28;20023;-83
2020/12/25 08:47:26;;;;;;;35.13;13.20;;;;;;;;;;4974738;28;20018;-79
2020/12/25 08:49:53;;;;;;;94.37;29.83;;;;;;;;;;4973411;28;20022;-81
2020/12/25 08:52:22;;;;;;;277.97;96.70;;;;;;;;;;4968867;28;20027;-81
2020/12/25 08:54:55;;;;;;;65.07;24.60;;;;;;;;;;4962637;28;20109;-81
2020/12/25 08:57:20;;;;;;;15.70;5.43;;;;;;;;;;4959918;28;20033;-81
2020/12/25 08:59:45;;;;;;;8.97;2.63;;;;;;;;;;4959655;28;20105;-81
2020/12/25 09:02:11;;;;;;;5.87;2.03;;;;;;;;;;4957269;28;20023;-81
2020/12/25 09:04:36;;;;;;;7.70;2.23;;;;;;;;;;4957135;28;20038;-77
2020/12/25 09:07:02;;;;;;;7.03;2.07;;;;;;;;;;4968935;28;20391;-77
2020/12/25 09:09:27;;;;;;;7.03;1.93;;;;;;;;;;4956679;28;20066;-77
2020/12/25 09:11:52;;;;;;;11.97;3.77;;;;;;;;;;4955446;28;20364;-77
2020/12/25 09:14:17;;;;;;;7.77;2.90;;;;;;;;;;4959819;28;20031;-77
2020/12/25 09:16:43;;;;;;;6.40;2.00;;;;;;;;;;4971908;28;20035;-76
2020/12/25 09:19:08;;;;;;;12.37;3.90;;;;;;;;;;4972467;28;20030;-85
2020/12/25 09:21:33;;;;;;;13.97;4.97;;;;;;;;;;4974951;28;20019;-85
2020/12/25 09:23:58;;;;;;;13.27;2.80;;;;;;;;;;4974852;28;20046;-87
2020/12/25 09:26:23;;;;;;;8.80;2.80;;;;;;;;;;4973075;28;20019;-86
2020/12/25 09:28:49;;;;;;;8.23;2.30;;;;;;;;;;4973134;28;20661;-87
2020/12/25 09:31:14;;;;;;;17.07;2.87;;;;;;;;;;4973727;28;20033;-87
2020/12/25 09:33:40;;;;;;;8.37;2.67;;;;;;;;;;4972368;28;20382;-86
2020/12/25 09:36:08;;;;;;;18.07;5.73;;;;;;;;;;4968554;28;20184;-87
2020/12/25 09:38:34;;;;;;;10.33;2.80;;;;;;;;;;4972210;28;20046;-86
2020/12/25 09:41:02;;;;;;;12.67;5.83;;;;;;;;;;4961868;28;20043;-86
2020/12/25 09:43:32;;;;;;;13.10;5.03;;;;;;;;;;4965159;28;20105;-86
2020/12/25 09:45:57;;;;;;;11.80;2.57;;;;;;;;;;4973896;28;20077;-87
2020/12/25 09:48:23;;;;;;;9.47;4.10;;;;;;;;;;4972528;28;20496;-86
2020/12/25 09:50:48;;;;;;;13.07;3.20;;;;;;;;;;4972727;28;20454;-86
2020/12/25 09:53:13;;;;;;;10.10;3.07;;;;;;;;;;4972999;28;20125;-88
2020/12/25 09:55:40;;;;;;;11.23;3.93;;;;;;;;;;4973587;28;20112;-88
2020/12/25 09:58:06;;;;;;;9.43;2.70;;;;;;;;;;4974423;28;20039;-87
2020/12/25 10:00:31;;;;;;;10.60;2.83;;;;;;;;;;4969987;28;20110;-87
2020/12/25 10:02:56;;;;;;;9.30;2.73;;;;;;;;;;4971688;28;20027;-86
2020/12/25 10:05:22;;;;;;;10.80;2.20;;;;;;;;;;4972281;28;20082;-87
2020/12/25 10:07:48;;;;;;;9.57;2.30;;;;;;;;;;4972943;28;20109;-87
2020/12/25 10:10:14;;;;;;;7.43;2.40;;;;;;;;;;4971155;28;20029;-86
2020/12/25 10:12:39;;;;;;;8.67;2.97;;;;;;;;;;4961621;28;20023;-86
2020/12/25 10:15:04;;;;;;;8.07;2.47;;;;;;;;;;4971160;28;20109;-85
2020/12/25 10:17:29;;;;;;;11.93;2.70;;;;;;;;;;4972365;28;20034;-86
2020/12/25 10:19:54;;;;;;;12.87;2.30;;;;;;;;;;4972556;28;20644;-88
2020/12/25 10:22:21;;;;;;;9.50;2.00;;;;;;;;;;4971528;28;20027;-87
2020/12/25 10:24:47;;;;;;;14.47;2.70;;;;;;;;;;4961939;28;20038;-88
2020/12/25 10:27:12;;;;;;;13.37;2.83;;;;;;;;;;4964778;28;20019;-87
2020/12/25 10:29:37;;;;;;;12.87;2.47;;;;;;;;;;4972527;28;20478;-88
2020/12/25 10:32:02;;;;;;;8.20;2.10;;;;;;;;;;4973508;28;20031;-88
2020/12/25 10:34:27;;;;;;;8.90;2.80;;;;;;;;;;4972369;28;20018;-88
2020/12/25 10:36:52;;;;;;;14.80;3.37;;;;;;;;;;4973095;28;20103;-87
2020/12/25 10:39:18;;;;;;;12.37;2.20;;;;;;;;;;4972199;28;20027;-86
2020/12/25 10:41:43;;;;;;;11.27;1.70;;;;;;;;;;4971970;28;20041;-86
2020/12/25 10:44:08;;;;;;;14.27;2.30;;;;;;;;;;4971536;28;20043;-86
2020/12/25 10:46:34;;;;;;;7.90;1.93;;;;;;;;;;4971620;28;20552;-87
2020/12/25 10:48:59;;;;;;;12.10;2.23;;;;;;;;;;4972303;28;20414;-87
2020/12/25 10:51:24;;;;;;;12.83;1.97;;;;;;;;;;4970358;28;20081;-88
2020/12/25 10:53:50;;;;;;;10.67;1.87;;;;;;;;;;4965861;28;20503;-88
2020/12/25 10:56:21;;;;;;;12.07;1.70;;;;;;;;;;4972187;28;20190;-88
2020/12/25 10:58:47;;;;;;;15.07;2.20;;;;;;;;;;4972251;28;20382;-88
2020/12/25 11:01:19;;;;;;;16.03;2.10;;;;;;;;;;4970347;28;20018;-88
2020/12/25 11:03:44;;;;;;;10.73;1.90;;;;;;;;;;4965454;28;20058;-88
2020/12/25 11:06:09;;;;;;;9.47;1.73;;;;;;;;;;4967983;28;20122;-87
2020/12/25 11:08:35;;;;;;;8.20;1.33;;;;;;;;;;4962255;28;20018;-88
2020/12/25 11:11:00;;;;;;;9.27;1.50;;;;;;;;;;4969083;28;20034;-88
2020/12/25 11:13:25;;;;;;;9.93;1.67;;;;;;;;;;4964875;28;20082;-87
2020/12/25 11:15:50;;;;;;;8.30;1.63;;;;;;;;;;4969189;28;20037;-85
2020/12/25 11:18:16;;;;;;;7.57;1.30;;;;;;;;;;4964175;28;20066;-86
2020/12/25 11:20:42;;;;;;;14.83;1.60;;;;;;;;;;4970592;28;20019;-87
2020/12/25 11:23:08;;;;;;;14.13;1.57;;;;;;;;;;4971749;28;20042;-87
2020/12/25 11:25:33;;;;;;;12.10;1.27;;;;;;;;;;4971621;28;20034;-86
2020/12/25 11:27:58;;;;;;;10.07;1.37;;;;;;;;;;4971259;28;20019;-86
2020/12/25 11:30:23;;;;;;;6.57;1.33;;;;;;;;;;4970068;28;20011;-88
2020/12/25 11:32:48;;;;;;;11.40;1.37;;;;;;;;;;4968491;28;20818;-87
2020/12/25 11:35:13;;;;;;;7.33;1.30;;;;;;;;;;4971414;28;20045;-87
2020/12/25 11:37:39;;;;;;;6.17;1.30;;;;;;;;;;4968543;28;20054;-88
2020/12/25 11:40:04;;;;;;;18.77;1.63;;;;;;;;;;4971829;28;20022;-88
2020/12/25 11:42:29;;;;;;;7.93;1.40;;;;;;;;;;4971035;28;20043;-87
2020/12/25 11:44:54;;;;;;;16.10;1.87;;;;;;;;;;4971314;28;20027;-87
2020/12/25 11:47:20;;;;;;;12.87;1.70;;;;;;;;;;4971522;28;20031;-85
2020/12/25 11:49:45;;;;;;;11.00;1.60;;;;;;;;;;4970807;28;20027;-89
2020/12/25 11:52:10;;;;;;;9.57;2.10;;;;;;;;;;4967665;28;20015;-85
2020/12/25 11:54:35;;;;;;;11.77;1.53;;;;;;;;;;4963008;28;20018;-86
2020/12/25 11:57:00;;;;;;;9.60;1.57;;;;;;;;;;4965259;28;20027;-86
2020/12/25 11:59:25;;;;;;;17.80;1.50;;;;;;;;;;4978992;28;20041;-88
2020/12/25 12:01:51;;;;;;;8.10;1.10;;;;;;;;;;4970883;28;20023;-87
2020/12/25 12:04:16;;;;;;;12.70;1.33;;;;;;;;;;4972501;28;20114;-87
2020/12/25 12:06:42;;;;;;;8.03;1.50;;;;;;;;;;4970353;28;20114;-87
2020/12/25 12:09:07;;;;;;;12.83;2.10;;;;;;;;;;4976769;28;20713;-87
2020/12/25 12:11:32;;;;;;;15.90;3.67;;;;;;;;;;4974972;28;20105;-87
2020/12/25 12:13:57;;;;;;;12.80;2.10;;;;;;;;;;4975160;28;20015;-86
2020/12/25 12:16:24;;;;;;;11.90;2.83;;;;;;;;;;4974883;28;20402;-86
2020/12/25 12:18:50;;;;;;;5.93;0.90;;;;;;;;;;4973631;28;20027;-86
2020/12/25 12:21:15;;;;;;;12.10;1.37;;;;;;;;;;4973002;28;20034;-88
2020/12/25 12:23:41;;;;;;;12.53;1.67;;;;;;;;;;4973159;28;20426;-87
2020/12/25 12:26:06;;;;;;;7.73;1.70;;;;;;;;;;4973174;28;20482;-86
2020/12/25 12:28:31;;;;;;;7.93;1.33;;;;;;;;;;4974301;28;20358;-87
2020/12/25 12:30:57;;;;;;;10.10;1.90;;;;;;;;;;4974057;28;20391;-86
2020/12/25 12:33:22;;;;;;;12.30;1.67;;;;;;;;;;4971979;28;20037;-86
2020/12/25 12:35:47;;;;;;;10.70;1.60;;;;;;;;;;4972334;28;20030;-87
2020/12/25 12:38:13;;;;;;;12.37;2.13;;;;;;;;;;4974178;28;20041;-86
2020/12/25 12:40:38;;;;;;;10.93;1.37;;;;;;;;;;4974031;28;20034;-86
2020/12/25 12:43:03;;;;;;;8.60;1.43;;;;;;;;;;4970448;28;20085;-86
2020/12/25 12:45:29;;;;;;;12.93;1.53;;;;;;;;;;4975856;28;20117;-86
2020/12/25 12:47:54;;;;;;;15.07;1.73;;;;;;;;;;4973272;28;20027;-87
2020/12/25 12:50:19;;;;;;;18.00;3.00;;;;;;;;;;4974435;28;20030;-85
2020/12/25 12:52:44;;;;;;;13.33;1.70;;;;;;;;;;4975881;28;20145;-86
2020/12/25 12:55:10;;;;;;;10.77;1.30;;;;;;;;;;4974624;28;20022;-85
2020/12/25 12:57:35;;;;;;;10.83;1.30;;;;;;;;;;4974095;28;20031;-87
2020/12/25 13:00:01;;;;;;;13.53;1.87;;;;;;;;;;4973857;28;20038;-85
2020/12/25 13:02:26;;;;;;;8.93;1.70;;;;;;;;;;4973994;28;20455;-85
2020/12/25 13:04:51;;;;;;;9.60;1.60;;;;;;;;;;4972254;28;20034;-86
2020/12/25 13:07:17;;;;;;;7.63;1.70;;;;;;;;;;4971941;28;20629;-89
2020/12/25 13:09:42;;;;;;;12.77;2.17;;;;;;;;;;4974573;28;20023;-85
2020/12/25 13:12:07;;;;;;;12.80;1.13;;;;;;;;;;4974091;28;20466;-86
2020/12/25 13:14:33;;;;;;;6.23;1.00;;;;;;;;;;4973073;28;20026;-84
2020/12/25 13:16:58;;;;;;;8.33;1.53;;;;;;;;;;4973475;28;20077;-87
2020/12/25 13:19:23;;;;;;;14.83;1.77;;;;;;;;;;4965247;28;20462;-88
2020/12/25 13:21:48;;;;;;;15.17;1.23;;;;;;;;;;4972934;28;20039;-87
2020/12/25 13:24:14;;;;;;;11.53;1.53;;;;;;;;;;4974711;28;20103;-85
2020/12/25 13:26:39;;;;;;;10.73;0.97;;;;;;;;;;4973604;28;20019;-89
2020/12/25 13:29:04;;;;;;;8.33;1.50;;;;;;;;;;4972086;28;20034;-87
2020/12/25 13:31:30;;;;;;;6.13;1.00;;;;;;;;;;4974162;28;20106;-86
2020/12/25 13:33:56;;;;;;;5.10;0.97;;;;;;;;;;4973604;28;20019;-88
2020/12/25 13:36:21;;;;;;;6.67;1.00;;;;;;;;;;4973969;28;20025;-88
2020/12/25 13:38:47;;;;;;;7.50;1.33;;;;;;;;;;4973651;28;20019;-88
2020/12/25 13:41:14;;;;;;;5.47;0.90;;;;;;;;;;4969712;28;20432;-87
2020/12/25 13:43:39;;;;;;;8.40;1.10;;;;;;;;;;4967777;28;20027;-87
2020/12/25 13:46:05;;;;;;;10.53;1.10;;;;;;;;;;4972273;28;20355;-88
2020/12/25 13:48:30;;;;;;;5.83;1.03;;;;;;;;;;4973402;28;20069;-87
2020/12/25 13:50:56;;;;;;;9.77;1.10;;;;;;;;;;4973414;28;20102;-87
2020/12/25 13:53:22;;;;;;;6.73;1.10;;;;;;;;;;4975301;28;20103;-87
2020/12/25 13:55:47;;;;;;;7.53;1.40;;;;;;;;;;4973879;28;20032;-87
2020/12/25 13:58:12;;;;;;;4.47;0.90;;;;;;;;;;4969713;28;21139;-87
2020/12/25 14:00:38;;;;;;;4.73;0.90;;;;;;;;;;4971962;28;20023;-85
2020/12/25 14:03:03;;;;;;;5.73;0.97;;;;;;;;;;4973716;28;20038;-85
2020/12/25 14:05:28;;;;;;;5.93;1.10;;;;;;;;;;4957617;28;20106;-84
2020/12/25 14:07:54;;;;;;;11.10;1.30;;;;;;;;;;4959786;28;20027;-84
2020/12/25 14:10:21;;;;;;;7.43;1.20;;;;;;;;;;4964727;28;20073;-84
2020/12/25 14:12:47;;;;;;;6.03;1.33;;;;;;;;;;4973280;28;20031;-84
2020/12/25 14:15:12;;;;;;;14.80;1.53;;;;;;;;;;4973108;28;20035;-84
2020/12/25 14:17:37;;;;;;;6.43;1.30;;;;;;;;;;4971895;28;20042;-93
2020/12/25 14:20:02;;;;;;;8.80;1.10;;;;;;;;;;4964444;28;20038;-84
2020/12/25 14:22:28;;;;;;;8.13;1.33;;;;;;;;;;4961319;28;20031;-84
2020/12/25 14:24:53;;;;;;;5.43;1.30;;;;;;;;;;4976051;28;20065;-84
2020/12/25 14:27:18;;;;;;;6.53;1.30;;;;;;;;;;4970410;28;20017;-85
2020/12/25 14:29:44;;;;;;;6.77;1.80;;;;;;;;;;4966028;28;20030;-85